Time;durP1;ratioP1;P1;durP2;ratioP2;P2;SDS_P1;SDS_P2;PMS_P1;PMS_P2;Temp;Humidity;BMP_temperature;BMP_pressure;BME280_temperature;BME280_humidity;BME280_pressure;Samples;Min_cycle;Max_cycle;Signal;HPM_P1;HPM_P2
2022/05/16 00:01:49;;;;;;;4.35;2.75;;;;;;;;;;5093024;28;20023;-80
2022/05/16 00:04:15;;;;;;;4.32;2.60;;;;;;;;;;5093266;28;20031;-79
2022/05/16 00:06:41;;;;;;;7.00;2.60;;;;;;;;;;5093295;28;20024;-80
2022/05/16 00:09:07;;;;;;;2.72;1.75;;;;;;;;;;5093006;28;20407;-80
2022/05/16 00:11:33;;;;;;;4.60;2.38;;;;;;;;;;5091651;28;20028;-79
2022/05/16 00:14:00;;;;;;;4.57;2.47;;;;;;;;;;5092847;28;20447;-78
2022/05/16 00:16:26;;;;;;;3.63;2.40;;;;;;;;;;5093240;28;20036;-79
2022/05/16 00:18:52;;;;;;;5.05;2.75;;;;;;;;;;5091754;28;20475;-78
2022/05/16 00:21:19;;;;;;;4.72;2.95;;;;;;;;;;5092796;28;20498;-79
2022/05/16 00:23:45;;;;;;;4.70;2.55;;;;;;;;;;5092992;28;20027;-79
2022/05/16 00:26:11;;;;;;;3.92;2.10;;;;;;;;;;5092751;28;20375;-79
2022/05/16 00:28:37;;;;;;;5.80;2.67;;;;;;;;;;5092885;28;20024;-79
2022/05/16 00:31:05;;;;;;;6.53;3.15;;;;;;;;;;5092772;28;20075;-79
2022/05/16 00:33:32;;;;;;;5.40;4.07;;;;;;;;;;5092843;28;20034;-79
2022/05/16 00:35:58;;;;;;;11.02;4.45;;;;;;;;;;5092690;28;20114;-80
2022/05/16 00:38:24;;;;;;;6.05;3.75;;;;;;;;;;5092773;28;20031;-79
2022/05/16 00:40:56;;;;;;;8.40;4.78;;;;;;;;;;5092631;28;20028;-80
2022/05/16 00:43:41;;;;;;;9.73;5.00;;;;;;;;;;5092629;28;20105;-80
2022/05/16 00:46:07;;;;;;;8.23;3.90;;;;;;;;;;5092614;28;20510;-81
2022/05/16 00:48:33;;;;;;;5.15;2.95;;;;;;;;;;5093462;28;20122;-78
2022/05/16 00:51:00;;;;;;;6.88;3.78;;;;;;;;;;5092266;28;20028;-78
2022/05/16 00:53:26;;;;;;;7.00;3.78;;;;;;;;;;5092517;28;20047;-78
2022/05/16 00:55:52;;;;;;;7.63;3.80;;;;;;;;;;5091920;28;20410;-79
2022/05/16 00:58:19;;;;;;;9.85;4.15;;;;;;;;;;5092596;28;20020;-79
2022/05/16 01:00:48;;;;;;;8.60;3.83;;;;;;;;;;5092478;28;20109;-78
2022/05/16 01:06:00;;;;;;;6.60;3.20;;;;;;;;;;5092746;28;20039;-80
2022/05/16 01:08:28;;;;;;;7.13;3.70;;;;;;;;;;5092455;28;20081;-79
2022/05/16 01:10:56;;;;;;;5.50;3.80;;;;;;;;;;5091343;28;20032;-78
2022/05/16 01:13:29;;;;;;;7.35;4.18;;;;;;;;;;5096635;28;20035;-79
2022/05/16 01:15:55;;;;;;;6.65;3.72;;;;;;;;;;5096405;28;20032;-80
2022/05/16 01:18:23;;;;;;;6.93;3.40;;;;;;;;;;5096404;28;20042;-79
2022/05/16 01:21:15;;;;;;;6.68;4.18;;;;;;;;;;5096315;28;20026;-80
2022/05/16 01:23:44;;;;;;;6.20;3.25;;;;;;;;;;5096429;28;20028;-79
2022/05/16 01:26:18;;;;;;;6.75;3.38;;;;;;;;;;5096096;28;20020;-79
2022/05/16 01:28:44;;;;;;;6.43;2.90;;;;;;;;;;5094880;28;20039;-80
2022/05/16 01:31:10;;;;;;;8.48;3.42;;;;;;;;;;5095877;28;20028;-79
2022/05/16 01:33:36;;;;;;;7.50;3.33;;;;;;;;;;5096150;28;20028;-79
2022/05/16 01:36:03;;;;;;;4.75;2.58;;;;;;;;;;5095985;28;20044;-80
2022/05/16 01:38:30;;;;;;;2.65;2.10;;;;;;;;;;5096133;28;20466;-80
2022/05/16 01:41:02;;;;;;;3.25;1.90;;;;;;;;;;5096042;28;20483;-78
2022/05/16 01:43:39;;;;;;;5.43;3.45;;;;;;;;;;5095978;28;20024;-80
2022/05/16 01:46:06;;;;;;;5.10;3.08;;;;;;;;;;5095653;28;20542;-79
2022/05/16 01:48:32;;;;;;;7.90;3.58;;;;;;;;;;5096035;28;20479;-80
2022/05/16 01:51:17;;;;;;;4.63;2.90;;;;;;;;;;5094440;28;20024;-80
2022/05/16 01:53:43;;;;;;;;;;;;;;;;;;5095903;28;20055;-80
2022/05/16 01:56:09;;;;;;;4.18;2.33;;;;;;;;;;5095912;28;19915;-79
2022/05/16 01:58:36;;;;;;;5.05;2.92;;;;;;;;;;5096040;28;20035;-79
2022/05/16 02:01:02;;;;;;;4.47;2.83;;;;;;;;;;5095646;28;20036;-80
2022/05/16 02:03:28;;;;;;;5.57;3.00;;;;;;;;;;5094420;28;20428;-79
2022/05/16 02:05:55;;;;;;;5.63;3.10;;;;;;;;;;5094082;28;20448;-80
2022/05/16 02:08:21;;;;;;;4.55;2.60;;;;;;;;;;5095597;28;20024;-79
2022/05/16 02:10:48;;;;;;;4.22;3.15;;;;;;;;;;5095331;28;20425;-78
2022/05/16 02:13:14;;;;;;;6.85;3.13;;;;;;;;;;5095424;28;20032;-79
2022/05/16 02:15:41;;;;;;;5.47;2.92;;;;;;;;;;5095279;28;20085;-79
2022/05/16 02:18:08;;;;;;;4.22;3.15;;;;;;;;;;5095195;28;20039;-78
2022/05/16 02:20:34;;;;;;;3.85;2.50;;;;;;;;;;5095390;28;20024;-78
2022/05/16 02:25:45;;;;;;;;;;;;;;;;;;5095352;28;20089;-79
2022/05/16 02:28:14;;;;;;;6.15;2.95;;;;;;;;;;5095196;28;19904;-80
2022/05/16 02:30:41;;;;;;;8.85;4.63;;;;;;;;;;5094995;28;20027;-79
2022/05/16 02:33:07;;;;;;;13.10;6.20;;;;;;;;;;5095055;28;20035;-80
2022/05/16 02:35:34;;;;;;;15.07;6.60;;;;;;;;;;5094667;28;20111;-78
2022/05/16 02:38:00;;;;;;;15.18;6.85;;;;;;;;;;5093713;28;20027;-80
2022/05/16 02:40:27;;;;;;;12.98;6.38;;;;;;;;;;5093763;28;20039;-79
2022/05/16 02:42:53;;;;;;;12.23;6.43;;;;;;;;;;5094774;28;20030;-80
2022/05/16 02:45:20;;;;;;;8.77;4.57;;;;;;;;;;5094922;28;20020;-80
2022/05/16 02:47:46;;;;;;;6.72;3.88;;;;;;;;;;5094525;28;20032;-78
2022/05/16 02:50:12;;;;;;;6.68;3.83;;;;;;;;;;5094862;28;20421;-80
2022/05/16 02:52:39;;;;;;;7.55;3.83;;;;;;;;;;5094537;28;20028;-79
2022/05/16 02:55:05;;;;;;;3.10;2.47;;;;;;;;;;5092995;28;20052;-80
2022/05/16 02:57:32;;;;;;;4.47;3.42;;;;;;;;;;5094641;28;20099;-80
2022/05/16 02:59:58;;;;;;;2.90;2.17;;;;;;;;;;5094446;28;20534;-79
2022/05/16 03:02:25;;;;;;;3.00;2.30;;;;;;;;;;5094528;28;20382;-78
2022/05/16 03:04:54;;;;;;;6.03;2.60;;;;;;;;;;5094160;28;20024;-81
2022/05/16 03:07:20;;;;;;;4.65;2.75;;;;;;;;;;5095605;28;20028;-80
2022/05/16 03:09:49;;;;;;;5.57;2.70;;;;;;;;;;5094366;28;20059;-80
2022/05/16 03:12:15;;;;;;;8.40;2.63;;;;;;;;;;5094478;28;20395;-80
2022/05/16 03:14:41;;;;;;;4.55;2.40;;;;;;;;;;5092791;28;20372;-80
2022/05/16 03:17:08;;;;;;;3.30;2.13;;;;;;;;;;5093062;28;20036;-78
2022/05/16 03:19:35;;;;;;;4.45;2.92;;;;;;;;;;5092810;28;20030;-79
2022/05/16 03:22:02;;;;;;;8.00;2.78;;;;;;;;;;5093925;28;20036;-78
2022/05/16 03:24:28;;;;;;;9.23;4.45;;;;;;;;;;5094030;28;20101;-77
2022/05/16 03:26:54;;;;;;;7.15;3.10;;;;;;;;;;5093784;28;20020;-79
2022/05/16 03:29:23;;;;;;;5.18;3.10;;;;;;;;;;5094130;28;20020;-78
2022/05/16 03:31:49;;;;;;;6.55;3.40;;;;;;;;;;5093681;28;20032;-78
2022/05/16 03:34:15;;;;;;;5.10;3.38;;;;;;;;;;5093271;28;20029;-78
2022/05/16 03:36:41;;;;;;;5.65;3.95;;;;;;;;;;5093191;28;20032;-78
2022/05/16 03:41:53;;;;;;;8.30;4.57;;;;;;;;;;5093672;28;20039;-77
2022/05/16 03:44:20;;;;;;;6.70;4.32;;;;;;;;;;5093541;28;20024;-78
2022/05/16 03:46:46;;;;;;;10.90;6.72;;;;;;;;;;5093336;28;20073;-80
2022/05/16 03:49:12;;;;;;;9.65;5.10;;;;;;;;;;5093132;28;20081;-79
2022/05/16 03:51:38;;;;;;;8.27;4.35;;;;;;;;;;5093333;28;20391;-78
2022/05/16 03:54:05;;;;;;;6.63;3.45;;;;;;;;;;5093051;28;20028;-79
2022/05/16 03:56:31;;;;;;;7.88;3.70;;;;;;;;;;5093196;28;20122;-80
2022/05/16 03:58:58;;;;;;;4.70;3.28;;;;;;;;;;5093265;28;20024;-79
2022/05/16 04:01:24;;;;;;;7.00;3.00;;;;;;;;;;5093373;28;20056;-78
2022/05/16 04:03:51;;;;;;;7.70;4.00;;;;;;;;;;5093192;28;20024;-80
2022/05/16 04:06:18;;;;;;;5.22;3.20;;;;;;;;;;5093869;28;20028;-80
2022/05/16 04:08:45;;;;;;;7.05;3.65;;;;;;;;;;5093055;28;20028;-80
2022/05/16 04:11:12;;;;;;;7.85;3.28;;;;;;;;;;5093082;28;20475;-80
2022/05/16 04:13:38;;;;;;;4.55;2.72;;;;;;;;;;5092871;28;20035;-79
2022/05/16 04:16:04;;;;;;;8.23;3.38;;;;;;;;;;5092946;28;20119;-78
2022/05/16 04:18:32;;;;;;;5.35;3.00;;;;;;;;;;5093143;28;20102;-78
2022/05/16 04:20:58;;;;;;;3.95;2.85;;;;;;;;;;5093273;28;20023;-79
2022/05/16 04:23:25;;;;;;;5.55;2.58;;;;;;;;;;5093364;28;20443;-80
2022/05/16 04:25:51;;;;;;;3.30;2.10;;;;;;;;;;5092732;28;20024;-80
2022/05/16 04:28:17;;;;;;;5.82;2.67;;;;;;;;;;5092943;28;20032;-79
2022/05/16 04:30:43;;;;;;;3.65;2.00;;;;;;;;;;5088603;28;20016;-80
2022/05/16 04:33:10;;;;;;;4.60;2.42;;;;;;;;;;5072699;28;20092;-80
2022/05/16 04:35:38;;;;;;;6.90;2.00;;;;;;;;;;5072400;28;20463;-81
2022/05/16 04:38:07;;;;;;;4.82;1.90;;;;;;;;;;5071101;28;20052;-84
2022/05/16 04:40:34;;;;;;;5.57;2.58;;;;;;;;;;5072332;28;20475;-79
2022/05/16 04:43:00;;;;;;;5.25;2.05;;;;;;;;;;5072343;28;20036;-84
2022/05/16 04:45:28;;;;;;;4.30;3.08;;;;;;;;;;5072406;28;20037;-80
2022/05/16 04:47:58;;;;;;;5.25;2.88;;;;;;;;;;5075804;28;20031;-85
2022/05/16 04:50:28;;;;;;;7.68;3.60;;;;;;;;;;5072870;28;20037;-80
2022/05/16 04:52:55;;;;;;;8.73;3.30;;;;;;;;;;5070978;28;20036;-88
2022/05/16 04:55:22;;;;;;;9.55;4.43;;;;;;;;;;5073703;28;20063;-82
2022/05/16 04:57:50;;;;;;;8.07;3.55;;;;;;;;;;5071039;28;20049;-81
2022/05/16 05:00:18;;;;;;;10.27;6.07;;;;;;;;;;5071089;28;20037;-85
2022/05/16 05:02:44;;;;;;;11.65;7.57;;;;;;;;;;5072202;28;20489;-85
2022/05/16 05:05:11;;;;;;;10.25;5.30;;;;;;;;;;5072166;28;20487;-85
2022/05/16 05:07:38;;;;;;;12.73;5.28;;;;;;;;;;5070797;28;20024;-84
2022/05/16 05:15:40;;;;;;;10.45;4.18;;;;;;;;;;5072026;28;20090;-80
2022/05/16 05:18:07;;;;;;;10.48;4.00;;;;;;;;;;5070732;28;20032;-88
2022/05/16 05:20:33;;;;;;;16.02;5.35;;;;;;;;;;5071959;28;20046;-82
2022/05/16 05:23:03;;;;;;;15.05;4.85;;;;;;;;;;5071489;28;20056;-83
2022/05/16 05:25:29;;;;;;;10.75;4.90;;;;;;;;;;5070026;28;20119;-81
2022/05/16 05:27:56;;;;;;;6.38;4.38;;;;;;;;;;5071626;28;20031;-83
2022/05/16 05:30:23;;;;;;;9.70;4.55;;;;;;;;;;5070406;28;20054;-81
2022/05/16 05:32:49;;;;;;;7.10;3.55;;;;;;;;;;5085367;28;20073;-80
2022/05/16 05:35:16;;;;;;;9.77;5.32;;;;;;;;;;5088583;28;20036;-80
2022/05/16 05:37:42;;;;;;;15.68;9.68;;;;;;;;;;5091520;28;20024;-79
2022/05/16 05:40:08;;;;;;;15.90;10.25;;;;;;;;;;5090404;28;20497;-77
2022/05/16 05:42:35;;;;;;;14.45;9.20;;;;;;;;;;5091190;28;20076;-77
2022/05/16 05:45:01;;;;;;;16.98;9.02;;;;;;;;;;5091861;28;20052;-78
2022/05/16 05:47:28;;;;;;;14.90;9.27;;;;;;;;;;5091511;28;20025;-79
2022/05/16 05:49:54;;;;;;;16.05;9.20;;;;;;;;;;5091093;28;20032;-77
2022/05/16 05:52:21;;;;;;;10.60;7.78;;;;;;;;;;5091392;28;20032;-78
2022/05/16 05:54:48;;;;;;;11.43;6.78;;;;;;;;;;5091075;28;20052;-77
2022/05/16 05:57:16;;;;;;;12.32;8.00;;;;;;;;;;5091435;28;20024;-80
2022/05/16 05:59:42;;;;;;;23.13;9.35;;;;;;;;;;5094564;28;20521;-79
2022/05/16 06:02:09;;;;;;;14.48;8.30;;;;;;;;;;5090658;28;20110;-78
2022/05/16 06:04:35;;;;;;;15.50;8.60;;;;;;;;;;5093877;28;20398;-78
2022/05/16 06:07:01;;;;;;;26.42;11.65;;;;;;;;;;5093117;28;20391;-79
2022/05/16 06:09:28;;;;;;;41.72;19.33;;;;;;;;;;5094535;28;20089;-77
2022/05/16 06:11:54;;;;;;;30.38;13.02;;;;;;;;;;5093894;28;20034;-79
2022/05/16 06:14:20;;;;;;;20.85;9.68;;;;;;;;;;5095444;28;20058;-79
2022/05/16 06:16:47;;;;;;;21.00;9.60;;;;;;;;;;5094041;28;20040;-81
2022/05/16 06:19:13;;;;;;;15.80;8.85;;;;;;;;;;5093917;28;20042;-77
2022/05/16 06:21:39;;;;;;;35.85;12.38;;;;;;;;;;5094107;28;20035;-77
2022/05/16 06:25:31;;;;;;;17.70;9.15;;;;;;;;;;5093775;28;20028;-78
2022/05/16 06:26:52;;;;;;;16.98;8.73;;;;;;;;;;5093434;28;20056;-78
2022/05/16 06:29:18;;;;;;;17.23;10.15;;;;;;;;;;5093528;28;20030;-79
2022/05/16 06:31:44;;;;;;;17.73;8.70;;;;;;;;;;5093454;28;20740;-78
2022/05/16 06:34:10;;;;;;;17.65;8.70;;;;;;;;;;5092733;28;20036;-78
2022/05/16 06:36:36;;;;;;;13.77;8.02;;;;;;;;;;5093530;28;20047;-79
2022/05/16 06:39:04;;;;;;;14.15;8.05;;;;;;;;;;5092628;28;20118;-81
2022/05/16 06:41:32;;;;;;;16.42;8.88;;;;;;;;;;5093422;28;20016;-81
2022/05/16 06:43:59;;;;;;;14.10;7.57;;;;;;;;;;5093176;28;20047;-80
2022/05/16 06:46:25;;;;;;;16.30;8.55;;;;;;;;;;5093513;28;20031;-80
2022/05/16 06:48:52;;;;;;;15.60;8.35;;;;;;;;;;5091779;28;20043;-79
2022/05/16 06:51:18;;;;;;;15.25;8.35;;;;;;;;;;5091403;28;20036;-79
2022/05/16 06:53:44;;;;;;;15.25;7.93;;;;;;;;;;5093244;28;20492;-79
2022/05/16 06:56:10;;;;;;;16.77;7.95;;;;;;;;;;5092539;28;20052;-79
2022/05/16 06:58:36;;;;;;;12.93;7.82;;;;;;;;;;5093290;28;20110;-81
2022/05/16 07:01:04;;;;;;;13.50;7.47;;;;;;;;;;5092709;28;20501;-77
2022/05/16 07:03:30;;;;;;;11.00;7.05;;;;;;;;;;5092934;28;20032;-78
2022/05/16 07:05:56;;;;;;;10.80;6.53;;;;;;;;;;5092444;28;20048;-78
2022/05/16 07:08:23;;;;;;;12.18;6.53;;;;;;;;;;5092898;28;20031;-81
2022/05/16 07:10:50;;;;;;;10.70;6.60;;;;;;;;;;5092778;28;20016;-80
2022/05/16 07:13:19;;;;;;;12.40;5.75;;;;;;;;;;5092680;28;20034;-82
2022/05/16 07:15:45;;;;;;;9.48;5.00;;;;;;;;;;5092544;28;20044;-80
2022/05/16 07:18:12;;;;;;;9.75;5.80;;;;;;;;;;5091131;28;20506;-81
2022/05/16 07:20:38;;;;;;;11.82;6.05;;;;;;;;;;5088698;28;20111;-82
2022/05/16 07:23:05;;;;;;;13.27;8.43;;;;;;;;;;5071998;28;20070;-83
2022/05/16 07:27:56;;;;;;;11.00;6.75;;;;;;;;;;5072460;28;20464;-80
2022/05/16 07:28:18;;;;;;;12.32;8.07;;;;;;;;;;5072084;28;20127;-83
2022/05/16 07:30:44;;;;;;;13.77;8.35;;;;;;;;;;5070938;28;20028;-81
2022/05/16 07:33:10;;;;;;;11.77;7.10;;;;;;;;;;5089896;28;20439;-81
2022/05/16 07:35:38;;;;;;;9.65;5.78;;;;;;;;;;5091590;28;20028;-77
2022/05/16 07:38:05;;;;;;;6.20;3.78;;;;;;;;;;5090616;28;20032;-81
2022/05/16 07:40:32;;;;;;;7.43;4.10;;;;;;;;;;5096012;28;20081;-79
2022/05/16 07:43:00;;;;;;;6.40;4.45;;;;;;;;;;5092634;28;20031;-81
2022/05/16 07:45:29;;;;;;;6.90;3.65;;;;;;;;;;5090939;28;20040;-83
2022/05/16 07:47:56;;;;;;;9.20;4.38;;;;;;;;;;5091040;28;20102;-83
2022/05/16 07:50:23;;;;;;;10.80;6.90;;;;;;;;;;5090191;28;20454;-78
2022/05/16 07:52:49;;;;;;;6.93;4.25;;;;;;;;;;5077843;28;20459;-79
2022/05/16 07:55:16;;;;;;;5.65;4.07;;;;;;;;;;5071275;28;20060;-78
2022/05/16 07:57:43;;;;;;;6.22;4.10;;;;;;;;;;5087444;28;20391;-87
2022/05/16 08:00:09;;;;;;;7.15;3.15;;;;;;;;;;5070728;28;20104;-82
2022/05/16 08:02:35;;;;;;;6.38;3.75;;;;;;;;;;5071611;28;20585;-81
2022/05/16 08:05:02;;;;;;;5.07;3.28;;;;;;;;;;5071342;28;20052;-81
2022/05/16 08:07:28;;;;;;;9.70;3.83;;;;;;;;;;5071526;28;20039;-82
2022/05/16 08:12:39;;;;;;;7.55;3.97;;;;;;;;;;5072171;28;20406;-78
2022/05/16 08:15:06;;;;;;;7.10;2.85;;;;;;;;;;5071187;28;20020;-81
2022/05/16 08:17:32;;;;;;;5.97;3.90;;;;;;;;;;5070963;28;20427;-79
2022/05/16 08:19:59;;;;;;;5.35;3.60;;;;;;;;;;5071437;28;20399;-79
2022/05/16 08:22:51;;;;;;;9.18;6.03;;;;;;;;;;5070549;28;20045;-81
2022/05/16 08:25:23;;;;;;;4.25;2.65;;;;;;;;;;5070686;28;20029;-80
2022/05/16 08:27:50;;;;;;;4.07;3.05;;;;;;;;;;5071324;28;20040;-80
2022/05/16 08:30:17;;;;;;;5.15;2.92;;;;;;;;;;5070992;28;20119;-78
2022/05/16 08:32:44;;;;;;;6.07;2.50;;;;;;;;;;5085167;28;20035;-83
2022/05/16 08:35:11;;;;;;;8.95;4.35;;;;;;;;;;5089566;28;20036;-81
2022/05/16 08:40:45;;;;;;;7.40;3.08;;;;;;;;;;5085637;28;20036;-79
2022/05/16 08:43:15;;;;;;;3.95;2.40;;;;;;;;;;5091104;28;20111;-81
2022/05/16 08:45:51;;;;;;;5.05;2.88;;;;;;;;;;5090038;28;20036;-83
2022/05/16 08:48:21;;;;;;;5.72;2.80;;;;;;;;;;5089746;28;20020;-80
2022/05/16 08:50:53;;;;;;;4.80;2.45;;;;;;;;;;5090880;28;20071;-81
2022/05/16 08:53:25;;;;;;;13.90;4.20;;;;;;;;;;5090846;28;20028;-82
2022/05/16 08:55:52;;;;;;;4.25;2.30;;;;;;;;;;5090982;28;20044;-81
2022/05/16 08:58:21;;;;;;;6.55;3.30;;;;;;;;;;5090793;28;20035;-81
2022/05/16 09:00:48;;;;;;;9.88;3.25;;;;;;;;;;5090772;28;20024;-81
2022/05/16 09:06:25;;;;;;;4.68;2.67;;;;;;;;;;5071911;28;20086;-82
2022/05/16 09:08:51;;;;;;;4.65;2.40;;;;;;;;;;5090938;28;20032;-87
2022/05/16 09:11:21;;;;;;;4.72;2.38;;;;;;;;;;5089489;28;20372;-83
2022/05/16 09:13:51;;;;;;;5.60;2.67;;;;;;;;;;5077078;28;20034;-84
2022/05/16 09:16:37;;;;;;;28.40;10.07;;;;;;;;;;5090566;28;20036;-85
2022/05/16 09:19:22;;;;;;;10.55;4.30;;;;;;;;;;5089745;28;20045;-81
2022/05/16 09:22:19;;;;;;;;;;;;;;;;;;;;;
2022/05/16 09:24:49;;;;;;;116.97;43.63;;;;;;;;;;5088703;28;20012;-85
2022/05/16 09:30:17;;;;;;;108.28;39.33;;;;;;;;;;5090449;28;20036;-82
2022/05/16 09:32:45;;;;;;;28.23;11.25;;;;;;;;;;5105730;28;20031;-84
2022/05/16 09:35:32;;;;;;;293.75;106.07;;;;;;;;;;5093072;28;20043;-82
2022/05/16 09:37:59;;;;;;;279.45;102.28;;;;;;;;;;5095155;28;20036;-82
2022/05/16 09:40:37;;;;;;;390.15;149.35;;;;;;;;;;5098387;28;20043;-87
2022/05/16 09:43:58;;;;;;;257.88;94.93;;;;;;;;;;5106636;28;20119;-83
2022/05/16 09:46:26;;;;;;;65.03;23.65;;;;;;;;;;5082584;28;20038;-83
2022/05/16 09:49:15;;;;;;;39.55;15.43;;;;;;;;;;5102015;28;20027;-85
2022/05/16 09:51:53;;;;;;;;;;;;;;;;;;;;;
2022/05/16 09:54:43;;;;;;;42.60;16.38;;;;;;;;;;5093871;28;20069;-82
2022/05/16 09:57:28;;;;;;;30.85;12.65;;;;;;;;;;5108414;28;20075;-81
2022/05/16 10:00:05;;;;;;;8.93;4.47;;;;;;;;;;5094564;28;20147;-83
2022/05/16 10:05:45;;;;;;;15.73;6.25;;;;;;;;;;5093969;28;20035;-81
2022/05/16 10:08:24;;;;;;;;;;;;;;;;;;;;;
2022/05/16 10:10:51;;;;;;;5.10;2.75;;;;;;;;;;5100724;28;20389;-81
2022/05/16 10:13:18;;;;;;;14.07;5.25;;;;;;;;;;5111280;28;20096;-83
2022/05/16 10:15:47;;;;;;;6.05;2.40;;;;;;;;;;5091704;28;20375;-82
2022/05/16 10:18:17;;;;;;;7.38;4.13;;;;;;;;;;5096787;28;20046;-80
2022/05/16 10:20:46;;;;;;;12.07;10.07;;;;;;;;;;5102600;28;20470;-81
2022/05/16 10:23:15;;;;;;;10.95;5.70;;;;;;;;;;5106450;28;20073;-82
2022/05/16 10:25:48;;;;;;;11.02;5.35;;;;;;;;;;5092876;28;20099;-84
2022/05/16 10:28:33;;;;;;;6.75;2.75;;;;;;;;;;5093587;28;20039;-83
2022/05/16 10:33:46;;;;;;;3.95;2.30;;;;;;;;;;5094922;28;20039;-81
2022/05/16 10:36:24;;;;;;;6.88;4.07;;;;;;;;;;5091321;28;20662;-81
2022/05/16 10:38:54;;;;;;;4.95;2.20;;;;;;;;;;5085383;28;20024;-80
2022/05/16 10:41:31;;;;;;;4.60;2.00;;;;;;;;;;5081486;28;20348;-85
2022/05/16 10:47:14;;;;;;;4.03;1.85;;;;;;;;;;5084403;28;20119;-82
2022/05/16 10:52:59;;;;;;;7.63;3.65;;;;;;;;;;4998855;28;20036;-81
2022/05/16 10:55:29;;;;;;;5.30;3.17;;;;;;;;;;5008142;28;20067;-83
2022/05/16 10:58:02;;;;;;;4.30;1.92;;;;;;;;;;5069813;28;20487;-82
2022/05/16 11:01:02;;;;;;;;;;;;;;;;;;;;;
2022/05/16 11:04:19;;;;;;;;;;;;;;;;;;;;;
2022/05/16 11:06:35;;;;;;;4.10;2.10;;;;;;;;;;5090951;28;20039;-82
2022/05/16 11:09:15;;;;;;;5.10;3.22;;;;;;;;;;5090618;28;20430;-82
2022/05/16 11:12:08;;;;;;;3.75;2.05;;;;;;;;;;5092514;28;20035;-79
2022/05/16 11:14:55;;;;;;;2.58;2.28;;;;;;;;;;5092440;28;20496;-82
2022/05/16 11:17:33;;;;;;;4.22;2.35;;;;;;;;;;5091664;28;20578;-80
2022/05/16 11:20:18;;;;;;;5.50;2.83;;;;;;;;;;5090286;28;20039;-78
2022/05/16 11:22:49;;;;;;;5.40;2.72;;;;;;;;;;5091175;28;20090;-80
2022/05/16 11:25:16;;;;;;;3.67;3.05;;;;;;;;;;5087445;28;20016;-81
2022/05/16 11:28:03;;;;;;;3.50;2.28;;;;;;;;;;5088988;28;20051;-79
2022/05/16 11:30:29;;;;;;;4.00;2.20;;;;;;;;;;5089760;28;20028;-80
2022/05/16 11:33:06;;;;;;;3.35;2.17;;;;;;;;;;5087171;28;20479;-83
2022/05/16 11:36:00;;;;;;;5.88;2.42;;;;;;;;;;5082353;28;20044;-86
2022/05/16 11:38:49;;;;;;;4.05;1.42;;;;;;;;;;5084575;28;20033;-79
2022/05/16 11:41:25;;;;;;;4.43;2.30;;;;;;;;;;5080733;28;20044;-81
2022/05/16 11:43:57;;;;;;;2.50;1.67;;;;;;;;;;5091738;28;20024;-80
2022/05/16 11:46:23;;;;;;;2.35;1.77;;;;;;;;;;5089276;28;20123;-80
2022/05/16 11:49:08;;;;;;;3.47;1.55;;;;;;;;;;5088695;28;20020;-78
2022/05/16 11:51:35;;;;;;;3.63;1.75;;;;;;;;;;5090351;28;20028;-80
2022/05/16 11:54:04;;;;;;;3.28;1.67;;;;;;;;;;5091893;28;20032;-79
2022/05/16 12:02:09;;;;;;;34.65;13.15;;;;;;;;;;5083444;28;20031;-79
2022/05/16 12:04:47;;;;;;;88.72;34.55;;;;;;;;;;5091955;28;20070;-77
2022/05/16 12:07:32;;;;;;;5.22;3.47;;;;;;;;;;5092688;28;20026;-76
2022/05/16 12:10:01;;;;;;;5.03;2.53;;;;;;;;;;5085743;28;20073;-78
2022/05/16 12:12:29;;;;;;;51.63;18.77;;;;;;;;;;5088441;28;20081;-77
2022/05/16 12:15:14;;;;;;;24.48;9.43;;;;;;;;;;5092627;28;20383;-81
2022/05/16 12:17:51;;;;;;;3.53;2.33;;;;;;;;;;5085562;28;20479;-79
2022/05/16 12:20:17;;;;;;;10.43;4.82;;;;;;;;;;5090269;28;20036;-80
2022/05/16 12:22:48;;;;;;;23.13;14.27;;;;;;;;;;5091727;28;20072;-79
2022/05/16 12:25:32;;;;;;;8.13;3.90;;;;;;;;;;5088472;28;20097;-80
2022/05/16 12:28:13;;;;;;;13.20;5.75;;;;;;;;;;5085461;28;20028;-81
2022/05/16 12:30:42;;;;;;;4.60;2.00;;;;;;;;;;5090200;28;20031;-79
2022/05/16 12:33:32;;;;;;;3.90;1.60;;;;;;;;;;5091891;28;20390;-81
2022/05/16 12:35:59;;;;;;;69.78;24.88;;;;;;;;;;5092000;28;20118;-81
2022/05/16 12:38:27;;;;;;;24.60;9.60;;;;;;;;;;5092223;28;20046;-80
2022/05/16 12:41:12;;;;;;;37.75;13.68;;;;;;;;;;5092208;28;20068;-76
2022/05/16 12:43:57;;;;;;;23.80;8.38;;;;;;;;;;5091368;28;20097;-79
2022/05/16 12:46:23;;;;;;;72.32;28.05;;;;;;;;;;5087748;28;20074;-82
2022/05/16 12:49:04;;;;;;;56.38;25.67;;;;;;;;;;5083036;28;20173;-79
2022/05/16 12:51:50;;;;;;;98.15;32.95;;;;;;;;;;5088911;28;20588;-81
2022/05/16 12:54:18;;;;;;;40.95;13.13;;;;;;;;;;5073945;28;20067;-81
2022/05/16 12:56:50;;;;;;;79.30;25.05;;;;;;;;;;5088094;28;20371;-79
2022/05/16 12:59:16;;;;;;;36.13;12.80;;;;;;;;;;5090111;28;20103;-79
2022/05/16 13:01:45;;;;;;;12.27;4.68;;;;;;;;;;5091549;28;20038;-78
2022/05/16 13:04:17;;;;;;;10.55;4.13;;;;;;;;;;5091502;28;20039;-77
2022/05/16 13:06:47;;;;;;;8.27;3.17;;;;;;;;;;5091211;28;20501;-83
2022/05/16 13:09:14;;;;;;;6.93;2.22;;;;;;;;;;5091856;28;20546;-84
2022/05/16 13:11:59;;;;;;;2.53;2.05;;;;;;;;;;5091993;28;20548;-82
2022/05/16 13:14:25;;;;;;;4.20;1.98;;;;;;;;;;5092129;28;20024;-81
2022/05/16 13:17:09;;;;;;;5.32;2.20;;;;;;;;;;5091788;28;20447;-82
2022/05/16 13:19:43;;;;;;;10.40;2.33;;;;;;;;;;5091542;28;20028;-80
2022/05/16 13:22:09;;;;;;;5.10;2.05;;;;;;;;;;5091848;28;20016;-77
2022/05/16 13:24:35;;;;;;;3.28;1.98;;;;;;;;;;5092000;28;20077;-76
2022/05/16 13:29:50;;;;;;;2.75;1.73;;;;;;;;;;5091110;28;20055;-80
2022/05/16 13:32:20;;;;;;;2.35;1.85;;;;;;;;;;5091096;28;20042;-81
2022/05/16 13:34:51;;;;;;;3.15;2.05;;;;;;;;;;5089713;28;20031;-81
2022/05/16 13:37:21;;;;;;;3.97;1.75;;;;;;;;;;5091545;28;20364;-79
2022/05/16 13:39:50;;;;;;;3.33;1.65;;;;;;;;;;5091260;28;20052;-81
2022/05/16 13:42:20;;;;;;;3.67;1.90;;;;;;;;;;5091371;28;20544;-79
2022/05/16 13:44:51;;;;;;;4.25;1.98;;;;;;;;;;5088633;28;20032;-80
2022/05/16 13:47:23;;;;;;;4.43;1.95;;;;;;;;;;5091766;28;20066;-80
2022/05/16 13:49:51;;;;;;;4.00;1.80;;;;;;;;;;5084056;28;20119;-81
2022/05/16 13:52:22;;;;;;;3.83;1.88;;;;;;;;;;5090568;28;20093;-79
2022/05/16 13:54:49;;;;;;;3.72;2.13;;;;;;;;;;5091513;28;20136;-80
2022/05/16 13:57:22;;;;;;;3.30;1.80;;;;;;;;;;5092100;28;20028;-80
2022/05/16 13:59:50;;;;;;;5.63;2.00;;;;;;;;;;5091215;28;20031;-81
2022/05/16 14:02:23;;;;;;;3.03;1.92;;;;;;;;;;5091760;28;20024;-81
2022/05/16 14:04:51;;;;;;;3.45;1.90;;;;;;;;;;5071505;28;20395;-80
2022/05/16 14:07:19;;;;;;;5.75;3.20;;;;;;;;;;5071485;28;20394;-78
2022/05/16 14:09:55;;;;;;;6.95;2.53;;;;;;;;;;5083143;28;20034;-81
2022/05/16 14:12:35;;;;;;;5.00;2.30;;;;;;;;;;5091537;28;20027;-82
2022/05/16 14:15:17;;;;;;;6.85;3.78;;;;;;;;;;5090814;28;20032;-75
2022/05/16 14:17:55;;;;;;;3.53;2.00;;;;;;;;;;5090268;28;20072;-79
2022/05/16 14:20:21;;;;;;;3.83;1.90;;;;;;;;;;5094389;28;20031;-81
2022/05/16 14:22:56;;;;;;;3.65;2.03;;;;;;;;;;5095153;28;20024;-83
2022/05/16 14:25:27;;;;;;;4.53;2.47;;;;;;;;;;5095266;28;20016;-80
2022/05/16 14:27:59;;;;;;;2.47;1.80;;;;;;;;;;5094163;28;20057;-80
2022/05/16 14:30:26;;;;;;;3.92;2.03;;;;;;;;;;5094378;28;20027;-80
2022/05/16 14:33:06;;;;;;;4.40;2.20;;;;;;;;;;5094808;28;20032;-80
2022/05/16 14:35:33;;;;;;;3.13;2.05;;;;;;;;;;5094848;28;20387;-82
2022/05/16 14:38:04;;;;;;;3.55;1.90;;;;;;;;;;5095072;28;20036;-81
2022/05/16 14:40:38;;;;;;;6.65;5.32;;;;;;;;;;5095697;28;20020;-81
2022/05/16 14:43:06;;;;;;;;;;;;;;;;;;5095719;28;20082;-79
2022/05/16 14:48:28;;;;;;;5.72;1.92;;;;;;;;;;5094831;28;20047;-82
2022/05/16 14:50:54;;;;;;;5.90;2.13;;;;;;;;;;5092513;28;20445;-82
2022/05/16 14:53:20;;;;;;;4.32;2.08;;;;;;;;;;5094363;28;20417;-80
2022/05/16 14:55:48;;;;;;;4.72;2.03;;;;;;;;;;5093661;28;20044;-82
2022/05/16 14:58:15;;;;;;;3.50;2.72;;;;;;;;;;5094482;28;20050;-79
2022/05/16 15:06:34;;;;;;;4.05;2.17;;;;;;;;;;5050615;28;20043;-81
2022/05/16 15:09:01;;;;;;;3.33;1.73;;;;;;;;;;5075890;28;20031;-81
2022/05/16 15:11:29;;;;;;;4.93;2.42;;;;;;;;;;5093974;28;20478;-81
2022/05/16 15:13:56;;;;;;;3.50;1.70;;;;;;;;;;5093855;28;20482;-80
2022/05/16 15:16:23;;;;;;;3.35;2.10;;;;;;;;;;5093273;28;20067;-78
2022/05/16 15:18:49;;;;;;;3.28;2.13;;;;;;;;;;5093251;28;20034;-81
2022/05/16 15:21:16;;;;;;;3.05;1.80;;;;;;;;;;5092528;28;20024;-81
2022/05/16 15:23:50;;;;;;;5.78;2.28;;;;;;;;;;5089666;28;20024;-81
2022/05/16 15:26:16;;;;;;;;;;;;;;;;;;5090651;28;20055;-81
2022/05/16 15:28:42;;;;;;;3.80;2.15;;;;;;;;;;5094497;28;20370;-80
2022/05/16 15:31:08;;;;;;;3.85;2.17;;;;;;;;;;5094105;28;20030;-82
2022/05/16 15:33:35;;;;;;;4.82;2.60;;;;;;;;;;5092489;28;20062;-81
2022/05/16 15:36:02;;;;;;;5.15;2.65;;;;;;;;;;5092768;28;20043;-81
2022/05/16 15:38:29;;;;;;;4.60;2.72;;;;;;;;;;5092958;28;20031;-81
2022/05/16 15:40:55;;;;;;;7.20;2.75;;;;;;;;;;5093159;28;20028;-78
2022/05/16 15:43:21;;;;;;;12.05;9.88;;;;;;;;;;5093926;28;20538;-82
2022/05/16 15:45:50;;;;;;;4.00;2.85;;;;;;;;;;5093795;28;20100;-78
2022/05/16 15:48:19;;;;;;;6.20;3.40;;;;;;;;;;5103774;28;20119;-78
2022/05/16 15:50:46;;;;;;;5.68;2.55;;;;;;;;;;5112276;28;20049;-80
2022/05/16 15:53:12;;;;;;;5.15;2.40;;;;;;;;;;5097649;28;20318;-80
2022/05/16 15:55:39;;;;;;;3.97;2.90;;;;;;;;;;5092698;28;20035;-80